Christian Sabionski

Accountable Manager AM

Head of Training HT

Kapitän CPL (A) / ATPL (A)         

Fluglehrer FI (A) für PPL, CPL,

 IR, MCCI und FI

Prüfer CRE (A) SEP (Land) 

Werkstattmeister

 

 

 

 

 

 

 

 

Marc Kanitz

Marc Kanitz

Berufspilot CPL (A) / ATPL (A)

Fluglehrer FI (A) für PPL

CRI SEP & TMG,  Cessna SET,  ACRO

Fluglotse

 

 

 

 

 

Dr. Silke Sabionski

Silke

Compliance Monitoring +

Safety Manager

PPL (A)

Theorie Lehrerin

Ärztin

 

 

 

 

 

 

 

Dietrich Mohr                   

Beauftragter für Technik BfT

Fluglehrer PPL & SIM

Co Pilot CPL (A) / ATPL (A)

Ingenieur Luft & Raumfahrt

 

 

 

 

 

 

Dr. Winthir Brunnbauer

Fluglehrer FI IR

Language Examiner

Kapitän ATPL (A) 

Winni.png - 7.54 MB

                                               

Flugwetter Augsburg

[source: ADDS]
METAR
EDMA 190020Z AUTO 27003KT 200V340 9999 // FEW010/// BKN080/// OVC090/// 17/16 Q1017 =
TAF EDMA 181700Z 1818/1903 22005KT CAVOK PROB30 TEMPO 1818/1822 31020G30KT TSRA BKN050CB TEMPO 1822/1903 RA
TAF
TAF EDMA 181700Z 1818/1903 22005KT CAVOK PROB30 TEMPO 1818/1822 31020G30KT TSRA BKN050CB TEMPO 1822/1903 RA =
Cookies erleichtern die Bereitstellung unserer Dienste. Mit der Nutzung unserer Dienste erklären Sie sich damit einverstanden, dass wir Cookies verwenden.
Weitere Informationen Ok